Ecuador Ama la vida
Dirección General de Aviación Civil
IFIS
Viernes 19 de Enero del 2018
Buscar por aerodromo o helipuerto
Ingrese nombre de aeródromo, localidad o designador OACI:

Buscar por Fir

METAR del 19-01-2018 a las 07:00 UTC
SEQM 190700Z 03003KT 6000 BCFG SCT003 BKN010 BKN020 12/12 Q1025 TEMPO 4000 BR RMK A3029=
Viento: dirección 030 grados, velocidad 3 nudos
Visibilidad reinante: 6000 metros
Bancos de Niebla
Nubes: Dispersas a 300 pies sobre el nivel del terreno
Nubes: Fragmentadas a 1000 pies sobre el nivel del terreno
Nubes: Fragmentadas a 2000 pies sobre el nivel del terreno
Temperatura: 12 °C
Rocío: 12 °C
Humedad_relativa: 100%
Presión: 1025 hPa
Se esperan cambios en forma temporal en:
Visibilidad reinante: 4000 metros
Neblina
Información adicional:
Qnh: 30.29 inHg
SPECI del 19-01-2018 a las 06:42 UTC
SEQM 190642Z 04003KT 8000 BCFG SCT003 BKN010 12/12 Q1025 TEMPO 6000 RMK A3029=
Viento: dirección 040 grados, velocidad 3 nudos
Visibilidad reinante: 8000 metros
Bancos de Niebla
Nubes: Dispersas a 300 pies sobre el nivel del terreno
Nubes: Fragmentadas a 1000 pies sobre el nivel del terreno
Temperatura: 12 °C
Rocío: 12 °C
Humedad_relativa: 100%
Presión: 1025 hPa
Se esperan cambios en forma temporal en:
Visibilidad reinante: 6000 metros
Información adicional:
Qnh: 30.29 inHg
METAR del 19-01-2018 a las 06:00 UTC
SEQM 190600Z 04002KT 9999 FEW005 BKN010 BKN020 12/12 Q1026 NOSIG RMK A3030=
Viento: dirección 040 grados, velocidad 2 nudos
Visibilidad reinante: 10 km o más
Nubes: Escasas a 500 pies sobre el nivel del terreno
Nubes: Fragmentadas a 1000 pies sobre el nivel del terreno
Nubes: Fragmentadas a 2000 pies sobre el nivel del terreno
Temperatura: 12 °C
Rocío: 12 °C
Humedad_relativa: 100%
Presión: 1026 hPa
No se esperan cambios significativos en las próximas 2 horas
Información adicional:
Qnh: 30.30 inHg
METAR del 19-01-2018 a las 05:00 UTC
SEQM 190500Z 02005KT 9999 SCT010 SCT023 BKN080 12/12 Q1027 NOSIG RMK A3032=
Viento: dirección 020 grados, velocidad 5 nudos
Visibilidad reinante: 10 km o más
Nubes: Dispersas a 1000 pies sobre el nivel del terreno
Nubes: Dispersas a 2300 pies sobre el nivel del terreno
Nubes: Fragmentadas a 8000 pies sobre el nivel del terreno
Temperatura: 12 °C
Rocío: 12 °C
Humedad_relativa: 100%
Presión: 1027 hPa
No se esperan cambios significativos en las próximas 2 horas
Información adicional:
Qnh: 30.32 inHg
METAR del 19-01-2018 a las 04:00 UTC
SEQM 190400Z 03003KT 9999 FEW010 BKN020 BKN080 13/12 Q1027 NOSIG RMK A3033=
Viento: dirección 030 grados, velocidad 3 nudos
Visibilidad reinante: 10 km o más
Nubes: Escasas a 1000 pies sobre el nivel del terreno
Nubes: Fragmentadas a 2000 pies sobre el nivel del terreno
Nubes: Fragmentadas a 8000 pies sobre el nivel del terreno
Temperatura: 13 °C
Rocío: 12 °C
Humedad_relativa: 94%
Presión: 1027 hPa
No se esperan cambios significativos en las próximas 2 horas
Información adicional:
Qnh: 30.33 inHg
METAR del 19-01-2018 a las 03:00 UTC
SEQM 190300Z 07002KT 9999 FEW005 BKN013 BKN080 13/12 Q1026 NOSIG RMK A3032=
Viento: dirección 070 grados, velocidad 2 nudos
Visibilidad reinante: 10 km o más
Nubes: Escasas a 500 pies sobre el nivel del terreno
Nubes: Fragmentadas a 1300 pies sobre el nivel del terreno
Nubes: Fragmentadas a 8000 pies sobre el nivel del terreno
Temperatura: 13 °C
Rocío: 12 °C
Humedad_relativa: 94%
Presión: 1026 hPa
No se esperan cambios significativos en las próximas 2 horas
Información adicional:
Qnh: 30.32 inHg
METAR del 19-01-2018 a las 02:00 UTC
SEQM 190200Z 36006KT 9999 BKN004 13/12 Q1026 NOSIG RMK A3030=
Viento: dirección 360 grados, velocidad 6 nudos
Visibilidad reinante: 10 km o más
Nubes: Fragmentadas a 400 pies sobre el nivel del terreno
Temperatura: 13 °C
Rocío: 12 °C
Humedad_relativa: 94%
Presión: 1026 hPa
No se esperan cambios significativos en las próximas 2 horas
Información adicional:
Qnh: 30.30 inHg
METAR del 19-01-2018 a las 01:00 UTC
SEQM 190100Z 02004KT 9999 OVC004 13/12 Q1025 NOSIG RMK A3027=
Viento: dirección 020 grados, velocidad 4 nudos
Visibilidad reinante: 10 km o más
Nubes: Cubierto a 400 pies sobre el nivel del terreno
Temperatura: 13 °C
Rocío: 12 °C
Humedad_relativa: 94%
Presión: 1025 hPa
No se esperan cambios significativos en las próximas 2 horas
Información adicional:
Qnh: 30.27 inHg
METAR del 19-01-2018 a las 00:00 UTC
SEQM 190000Z 02007KT 9999 FEW010 SCT030 13/12 Q1023 NOSIG RMK A3023=
Viento: dirección 020 grados, velocidad 7 nudos
Visibilidad reinante: 10 km o más
Nubes: Escasas a 1000 pies sobre el nivel del terreno
Nubes: Dispersas a 3000 pies sobre el nivel del terreno
Temperatura: 13 °C
Rocío: 12 °C
Humedad_relativa: 94%
Presión: 1023 hPa
No se esperan cambios significativos en las próximas 2 horas
Información adicional:
Qnh: 30.23 inHg
METAR del 18-01-2018 a las 23:00 UTC
SEQM 182300Z 01008KT 9999 SCT030 SCT090 15/12 Q1022 NOSIG RMK A3020=
Viento: dirección 010 grados, velocidad 8 nudos
Visibilidad reinante: 10 km o más
Nubes: Dispersas a 3000 pies sobre el nivel del terreno
Nubes: Dispersas a 9000 pies sobre el nivel del terreno
Temperatura: 15 °C
Rocío: 12 °C
Humedad_relativa: 82%
Presión: 1022 hPa
No se esperan cambios significativos en las próximas 2 horas
Información adicional:
Qnh: 30.20 inHg